Latest Weather Observations for Gingin Airport

IDW60801

Issued at 5:04 pm WST Sunday 26 March 2017 (issued every 30 minutes, with the page automatically refreshed every 10 minutes)

About weather observations | Map of weather stations | Latest weather observations for WA | Other Formats
Station Details ID: 009178 Name: GINGIN AERO Lat: -31.46 Lon: 115.86 Height: 73.0 m
Data from the previous 72 hours. | See also: Recent months at Gingin Airport
Date/Time
WST
Temp
°C
App
Temp
°C
Dew
Point
°C
Rel
Hum
%
Delta-T
°C
Wind Press
QNH
hPa
Press
MSL
hPa
Rain since
9am
mm
Dir  Spd
km/h
Gust
km/h
Spd
kts
Gust
kts
26/05:00pm 20.1 14.4 8.4 47 6.1 SSW 28 43 15 23 1017.3 1016.9 0.0
26/04:30pm 19.6 13.7 9.2 51 5.5 SW 30 43 16 23 1016.9 1016.6 0.0
26/04:00pm 20.2 14.3 9.2 49 5.8 SW 30 43 16 23 1016.5 1016.2 0.0
26/03:30pm 20.6 14.0 7.6 43 6.7 SW 32 43 17 23 1016.2 1015.9 0.0
26/03:00pm 20.6 13.5 7.9 44 6.6 SW 35 50 19 27 1016.3 1016.0 0.0
26/02:30pm 20.4 14.1 9.0 48 6.0 SW 32 46 17 25 1015.9 1015.6 0.0
26/02:17pm 22.3 15.9 8.4 41 7.4 SW 32 52 17 28 1015.7 1015.4 0.0
26/02:00pm 21.6 14.2 6.7 38 7.6 SW 35 46 19 25 1015.8 1015.5 0.0
26/01:30pm 21.0 14.9 9.6 48 6.1 SW 32 46 17 25 1015.6 1015.3 0.0
26/01:16pm 20.8 14.0 9.4 48 6.1 SW 35 48 19 26 1015.8 1015.5 0.0
26/01:00pm 21.4 14.0 8.3 43 6.9 WSW 37 50 20 27 1015.6 1015.3 0.0
26/12:50pm 22.0 15.0 7.0 38 7.7 SW 33 52 18 28 1015.6 1015.3 0.0
26/12:30pm 21.3 14.2 6.4 38 7.6 SW 33 46 18 25 1015.7 1015.4 0.0
26/12:00pm 20.7 13.5 7.7 43 6.7 SW 35 50 19 27 1015.5 1015.2 0.0
26/11:30am 22.2 15.9 11.0 49 6.2 WSW 35 44 19 24 1015.2 1014.9 0.0
26/11:00am 20.8 14.5 10.9 53 5.4 SW 35 44 19 24 1015.1 1014.8 0.0
26/10:51am 21.8 15.7 11.8 53 5.6 SW 35 54 19 29 1015.1 1014.8 0.0
26/10:30am 22.1 16.0 10.3 47 6.5 SW 33 44 18 24 1014.8 1014.5 0.0
26/10:19am 21.8 15.3 9.0 44 6.8 SW 33 52 18 28 1014.6 1014.3 0.0
26/10:00am 20.9 14.2 9.5 48 6.1 SW 35 50 19 27 1014.7 1014.4 0.0
26/09:30am 20.3 12.6 10.1 52 5.5 SW 41 56 22 30 1014.3 1014.0 0.0
26/09:00am 19.5 13.6 12.3 63 4.0 WSW 35 44 19 24 1013.9 1013.6 0.4
26/08:30am 18.5 16.0 14.2 76 2.5 SW 20 28 11 15 1013.5 1013.2 0.4
26/08:00am 18.0 15.7 14.7 81 1.9 WSW 20 28 11 15 1013.1 1012.8 0.4
26/07:30am 17.4 14.5 15.2 87 1.3 SW 24 35 13 19 1012.7 1012.4 0.4
26/07:00am 17.3 15.1 16.0 92 0.8 SW 22 30 12 16 1012.1 1011.8 0.4
26/06:30am 17.9 14.7 15.3 85 1.5 WSW 26 35 14 19 1011.6 1011.3 0.0
26/06:00am 17.9 16.7 14.0 78 2.2 WNW 13 15 7 8 1011.1 1010.8 0.0
26/05:30am 18.2 17.4 14.1 77 2.4 WNW 11 17 6 9 1011.1 1010.8 0.0
26/05:00am 18.3 17.1 14.0 76 2.5 W 13 17 7 9 1011.0 1010.7 0.0
26/04:30am 17.8 17.1 13.3 75 2.5 WNW 9 13 5 7 1010.8 1010.5 0.0
26/04:00am 17.3 16.2 13.0 76 2.4 WNW 11 15 6 8 1010.7 1010.4 0.0
26/03:30am 16.5 15.5 12.3 76 2.3 WNW 9 13 5 7 1010.7 1010.4 0.0
26/03:00am 16.1 14.2 11.9 76 2.3 W 13 15 7 8 1010.6 1010.3 0.0
26/02:30am 15.8 14.7 11.8 77 2.2 WNW 9 13 5 7 1010.3 1010.0 0.0
26/02:00am 16.4 15.4 12.4 77 2.2 WNW 9 11 5 6 1010.3 1010.0 0.0
26/01:30am 17.7 16.6 13.2 75 2.5 W 11 15 6 8 1010.5 1010.2 0.0
26/01:00am 17.3 16.6 14.4 83 1.7 W 11 17 6 9 1010.5 1010.2 0.0
26/12:30am 17.3 16.9 15.3 88 1.2 W 11 15 6 8 1010.6 1010.3 0.0
26/12:00am 17.0 17.3 15.9 93 0.7 W 9 13 5 7 1010.7 1010.4 0.0
 
Date/Time
WST
Temp
°C
App
Temp
°C
Dew
Point
°C
Rel
Hum
%
Delta-T
°C
Wind Press
QNH
hPa
Press
MSL
hPa
Rain since
9am
mm
Dir  Spd
km/h
Gust
km/h
Spd
kts
Gust
kts
25/11:30pm 16.2 16.2 15.1 93 0.6 W 9 11 5 6 1010.5 1010.2 0.0
25/11:00pm 15.7 15.9 14.6 93 0.6 NW 7 9 4 5 1010.6 1010.3 0.0
25/10:30pm 15.8 16.0 14.7 93 0.6 NNW 7 11 4 6 1010.5 1010.2 0.0
25/10:00pm 16.1 15.9 14.8 92 0.8 NNW 9 9 5 5 1010.7 1010.4 0.0
25/09:30pm 16.4 16.7 14.9 91 0.9 NNW 7 9 4 5 1010.7 1010.4 0.0
25/09:00pm 16.4 16.7 14.6 89 1.0 NNW 6 7 3 4 1010.7 1010.4 0.0
25/08:30pm 16.6 16.8 14.6 88 1.2 WSW 7 9 4 5 1010.8 1010.5 0.0
25/08:00pm 17.5 17.8 15.0 85 1.5 WSW 7 7 4 4 1010.4 1010.1 0.0
25/07:30pm 18.5 18.9 15.4 82 1.8 WSW 7 11 4 6 1010.3 1010.0 0.0
25/07:00pm 19.5 19.3 15.6 78 2.3 SW 11 15 6 8 1010.1 1009.8 0.0
25/06:30pm 20.3 18.8 15.3 73 3.0 SW 17 22 9 12 1009.7 1009.4 0.0
25/06:00pm 21.6 19.3 15.7 69 3.5 SW 22 24 12 13 1009.4 1009.1 0.0
25/05:30pm 23.5 21.3 14.8 58 5.2 SW 20 26 11 14 1008.9 1008.6 0.0
25/05:00pm 24.5 22.5 15.4 57 5.5 SW 20 24 11 13 1008.7 1008.4 0.0
25/04:30pm 25.9 24.1 15.9 54 6.1 WSW 20 26 11 14 1008.4 1008.1 0.0
25/04:00pm 26.2 24.6 15.9 53 6.3 SW 19 24 10 13 1008.4 1008.1 0.0
25/03:30pm 26.5 24.5 15.5 50 6.7 WSW 20 26 11 14 1008.6 1008.3 0.0
25/03:00pm 26.6 24.8 15.9 51 6.6 WSW 20 26 11 14 1008.8 1008.5 0.0
25/02:30pm 26.3 23.6 15.7 52 6.5 SW 24 35 13 19 1009.1 1008.8 0.0
25/02:00pm 26.9 23.5 15.9 51 6.8 WSW 28 35 15 19 1009.3 1009.0 0.0
25/01:30pm 28.5 27.3 16.1 47 7.7 SW 17 32 9 17 1009.2 1008.9 0.0
25/01:00pm 27.4 26.9 14.8 46 7.6 N 11 20 6 11 1009.5 1009.2 0.0
25/12:30pm 27.7 28.0 15.0 45 7.7 N 7 15 4 8 1010.0 1009.7 0.0
25/12:00pm 26.7 27.0 15.1 49 7.0 NNW 7 13 4 7 1010.6 1010.3 0.0
25/11:30am 26.5 27.2 15.5 50 6.7 ESE 6 15 3 8 1010.9 1010.6 0.0
25/11:00am 24.9 25.3 14.7 53 6.1 E 6 11 3 6 1011.6 1011.3 0.0
25/10:30am 24.0 24.2 14.7 56 5.5 ENE 7 13 4 7 1012.1 1011.8 0.0
25/10:00am 23.3 22.7 14.6 58 5.2 ENE 11 19 6 10 1012.1 1011.8 0.0
25/09:30am 22.2 20.7 14.1 60 4.7 ENE 15 20 8 11 1012.2 1011.9 0.0
25/09:00am 21.3 19.0 14.0 63 4.3 ENE 19 24 10 13 1012.3 1012.0 0.0
25/08:30am 20.0 17.1 13.9 68 3.5 E 22 28 12 15 1012.4 1012.1 0.0
25/08:00am 18.8 16.1 13.6 72 3.0 E 20 24 11 13 1012.5 1012.2 0.0
25/07:30am 17.5 15.8 13.6 78 2.2 ESE 15 20 8 11 1012.6 1012.3 0.0
25/07:00am 16.3 14.9 13.4 83 1.6 ESE 13 17 7 9 1012.7 1012.4 0.0
25/06:30am 15.6 13.7 13.1 85 1.4 ESE 15 19 8 10 1012.7 1012.4 0.0
25/06:00am 15.7 13.4 13.0 84 1.5 ESE 17 20 9 11 1012.5 1012.2 0.0
25/05:30am 15.8 13.5 13.1 84 1.5 ESE 17 20 9 11 1012.4 1012.1 0.0
25/05:00am 15.5 14.0 13.0 85 1.4 SE 13 17 7 9 1012.4 1012.1 0.0
25/04:30am 15.7 14.5 12.8 83 1.6 SE 11 15 6 8 1012.4 1012.1 0.0
25/04:00am 15.9 14.4 13.0 83 1.6 ESE 13 17 7 9 1012.3 1012.0 0.0
25/03:30am 15.6 14.0 12.7 83 1.6 ESE 13 15 7 8 1012.3 1012.0 0.0
25/03:00am 15.6 13.9 12.5 82 1.7 ESE 13 17 7 9 1012.5 1012.2 0.0
25/02:30am 15.1 13.4 12.6 85 1.4 SE 13 15 7 8 1012.7 1012.4 0.0
25/02:00am 14.4 12.7 12.4 88 1.1 SE 13 15 7 8 1012.7 1012.4 0.0
25/01:30am 13.6 12.4 11.7 88 1.0 SE 9 11 5 6 1012.7 1012.4 0.0
25/01:00am 15.0 13.6 12.1 83 1.6 SE 11 13 6 7 1012.6 1012.3 0.0
25/12:30am 15.0 13.5 13.0 88 1.1 S 13 17 7 9 1012.6 1012.3 0.0
25/12:00am 14.0 13.1 12.7 92 0.7 S 9 11 5 6 1012.8 1012.5 0.0
 
Date/Time
WST
Temp
°C
App
Temp
°C
Dew
Point
°C
Rel
Hum
%
Delta-T
°C
Wind Press
QNH
hPa
Press
MSL
hPa
Rain since
9am
mm
Dir  Spd
km/h
Gust
km/h
Spd
kts
Gust
kts
24/11:30pm 13.8 14.2 12.5 92 0.7 SSE 2 6 1 3 1013.0 1012.7 0.0
24/11:00pm 13.7 13.3 12.3 91 0.8 SSE 6 9 3 5 1013.2 1012.9 0.0
24/10:30pm 14.8 15.5 13.3 91 0.8 SSE 2 6 1 3 1013.2 1012.9 0.0
24/10:00pm 15.7 15.9 14.2 91 0.9 SSE 6 7 3 4 1013.4 1013.1 0.0
24/09:30pm 15.4 15.3 13.8 90 0.9 SSE 7 7 4 4 1013.5 1013.2 0.0
24/09:00pm 16.5 16.7 14.3 87 1.3 SSE 6 6 3 3 1013.6 1013.3 0.0
24/08:30pm 17.3 17.6 14.6 84 1.6 SSE 6 7 3 4 1013.7 1013.4 0.0
24/08:00pm 18.9 20.6 16.3 85 1.6 SSE 2 6 1 3 1013.7 1013.4 0.0
24/07:30pm 19.2 19.9 16.2 83 1.8 S 7 11 4 6 1013.4 1013.1 0.0
24/07:00pm 19.8 19.5 16.4 81 2.0 SSW 13 17 7 9 1013.2 1012.9 0.0
24/06:30pm 20.5 19.8 16.3 77 2.5 SW 15 19 8 10 1013.1 1012.8 0.0
24/06:00pm 21.8 20.6 16.1 70 3.4 SSW 17 26 9 14 1012.9 1012.6 0.0
24/05:30pm 22.9 20.7 16.0 65 4.2 SSW 22 30 12 16 1012.6 1012.3 0.0
24/05:00pm 23.4 21.2 16.0 63 4.5 SSW 22 30 12 16 1012.5 1012.2 0.0
24/04:30pm 23.7 20.4 16.0 62 4.7 SSW 28 33 15 18 1012.5 1012.2 0.0
24/04:00pm 24.0 21.4 15.8 60 5.0 SW 24 32 13 17 1012.6 1012.3 0.0
24/03:30pm 25.0 22.7 15.6 56 5.7 SSW 22 26 12 14 1012.6 1012.3 0.0
24/03:00pm 25.4 23.7 16.3 57 5.6 SW 20 26 11 14 1012.7 1012.4 0.0
24/02:30pm 25.3 23.3 13.8 49 6.8 SSW 17 26 9 14 1012.9 1012.6 0.0
24/02:00pm 25.0 23.1 14.2 51 6.4 SSE 17 26 9 14 1013.2 1012.9 0.0
24/01:30pm 24.9 22.4 14.1 51 6.4 S 20 28 11 15 1013.5 1013.2 0.0
24/01:00pm 24.5 22.9 14.0 52 6.2 SSE 15 24 8 13 1014.0 1013.7 0.0
24/12:30pm 24.1 22.5 13.9 53 6.0 SSE 15 22 8 12 1014.5 1014.2 0.0
24/12:00pm 24.0 23.6 15.2 58 5.3 SSE 11 19 6 10 1015.2 1014.9 0.0
24/11:30am 21.7 21.3 14.1 62 4.4 SSE 9 17 5 9 1015.8 1015.5 0.0
24/11:00am 21.5 21.3 14.6 65 4.1 SSE 9 20 5 11 1016.2 1015.9 0.0
24/10:30am 20.5 19.9 14.6 69 3.5 SSE 11 19 6 10 1016.3 1016.0 0.0
24/10:00am 19.2 18.5 14.2 73 2.9 S 11 19 6 10 1016.6 1016.3 0.0
24/09:30am 18.3 17.6 14.2 77 2.4 ESE 11 15 6 8 1016.9 1016.6 0.0
24/09:00am 17.5 17.6 14.4 82 1.8 ESE 7 11 4 6 1016.9 1016.6 0.0
24/08:30am 16.6 16.0 14.6 88 1.2 ESE 11 15 6 8 1016.6 1016.3 0.0
24/08:00am 15.9 15.7 14.8 93 0.6 ESE 9 11 5 6 1016.5 1016.2 0.0
24/07:30am 15.4 14.0 14.6 95 0.5 SE 15 19 8 10 1015.8 1015.5 0.0
24/07:00am 15.0 14.3 14.4 96 0.3 SE 11 19 6 10 1015.4 1015.1 0.0
24/06:30am 14.7 14.7 14.1 96 0.3 SE 7 9 4 5 1015.3 1015.0 0.0
24/06:00am 14.4 13.9 13.8 96 0.3 SE 9 11 5 6 1014.9 1014.6 0.0
24/05:30am 14.2 12.9 13.6 96 0.3 SSE 13 15 7 8 1014.7 1014.4 0.0
24/05:00am 14.2 14.0 13.6 96 0.3 SSE 7 11 4 6 1014.3 1014.0 0.0
24/04:30am 12.7 13.3 11.8 94 0.5 CALM 0 0 0 0 1014.2 1013.9 0.0
24/04:00am 13.3 13.3 12.4 94 0.5 SSE 4 7 2 4 1014.2 1013.9 0.0
24/03:30am 14.6 14.4 13.6 94 0.6 SSE 7 9 4 5 1014.1 1013.8 0.0
24/03:00am 15.0 14.2 14.0 94 0.6 SSE 11 13 6 7 1014.1 1013.8 0.0
24/02:30am 15.1 14.7 14.0 93 0.6 S 9 11 5 6 1014.3 1014.0 0.0
24/02:00am 15.9 16.1 14.6 92 0.7 SE 7 7 4 4 1014.2 1013.9 0.0
24/01:30am 16.0 15.8 14.7 92 0.7 SSE 9 11 5 6 1014.5 1014.2 0.0
24/01:00am 16.6 16.6 15.1 91 0.9 SSE 9 11 5 6 1014.7 1014.4 0.0
24/12:30am 16.1 16.0 15.0 93 0.6 SSE 9 11 5 6 1014.7 1014.4 0.0
24/12:00am 13.8 13.4 12.5 92 0.7 SSE 6 9 3 5 1014.6 1014.3 0.0
 
Date/Time
WST
Temp
°C
App
Temp
°C
Dew
Point
°C
Rel
Hum
%
Delta-T
°C
Wind Press
QNH
hPa
Press
MSL
hPa
Rain since
9am
mm
Dir  Spd
km/h
Gust
km/h
Spd
kts
Gust
kts
23/11:30pm 15.0 16.1 13.5 91 0.8 CALM 0 0 0 0 1014.7 1014.4 0.0
23/11:00pm 16.0 16.1 14.4 90 0.9 SSE 7 9 4 5 1014.8 1014.5 0.0
23/10:30pm 16.3 15.7 14.7 90 0.9 SSW 11 13 6 7 1014.9 1014.6 0.0
23/10:00pm 16.5 16.7 14.7 89 1.0 SSW 7 7 4 4 1015.1 1014.8 0.0
23/09:30pm 16.9 16.8 14.9 88 1.2 SSW 9 11 5 6 1015.0 1014.7 0.0
23/09:00pm 17.2 17.1 15.0 87 1.3 SSW 9 11 5 6 1015.0 1014.7 0.0
23/08:30pm 17.5 17.4 15.0 85 1.5 SSW 9 13 5 7 1015.0 1014.7 0.0
23/08:00pm 18.0 17.2 15.1 83 1.7 SSW 13 15 7 8 1014.8 1014.5 0.0
23/07:30pm 18.3 17.2 15.2 82 1.8 SSW 15 19 8 10 1014.6 1014.3 0.0
23/07:00pm 18.7 18.0 15.4 81 1.9 SSW 13 19 7 10 1014.3 1014.0 0.0
23/06:30pm 19.1 17.5 15.0 77 2.4 SW 17 22 9 12 1014.0 1013.7 0.0
23/06:00pm 19.8 17.7 15.2 75 2.7 SW 20 26 11 14 1013.7 1013.4 0.0
23/05:30pm 20.8 18.2 14.9 69 3.5 SW 22 30 12 16 1013.7 1013.4 0.0

Other Formats:

Comma delimited format used in spreadsheet applications
http://www.bom.gov.au/fwo/IDW60801/IDW60801.95612.axf

JavaScript Object Notation format (JSON) in row-major order
http://www.bom.gov.au/fwo/IDW60801/IDW60801.95612.json